Time;durP1;ratioP1;P1;durP2;ratioP2;P2;SDS_P1;SDS_P2;PMS_P1;PMS_P2;Temp;Humidity;BMP_temperature;BMP_pressure;BME280_temperature;BME280_humidity;BME280_pressure;Samples;Min_cycle;Max_cycle;Signal;HPM_P1;HPM_P2
2022/12/31 00:00:59;;;;;;;1.73;1.25;;;;;;;;;;5108191;27;20072;-70
2022/12/31 00:03:25;;;;;;;5.25;1.67;;;;;;;;;;5110547;27;20529;-73
2022/12/31 00:05:52;;;;;;;5.28;1.58;;;;;;;;;;5124028;27;20358;-73
2022/12/31 00:08:18;;;;;;;5.50;1.80;;;;;;;;;;5120913;27;20135;-71
2022/12/31 00:10:44;;;;;;;3.13;1.60;;;;;;;;;;5110878;27;20055;-73
2022/12/31 00:13:11;;;;;;;4.28;1.77;;;;;;;;;;5111702;27;20047;-71
2022/12/31 00:15:38;;;;;;;2.40;1.70;;;;;;;;;;5109971;27;20093;-74
2022/12/31 00:18:05;;;;;;;3.85;1.80;;;;;;;;;;5093332;27;20047;-72
2022/12/31 00:20:31;;;;;;;4.95;1.80;;;;;;;;;;5123012;27;20535;-73
2022/12/31 00:22:58;;;;;;;5.20;1.90;;;;;;;;;;5112448;27;20056;-74
2022/12/31 00:25:25;;;;;;;3.83;1.80;;;;;;;;;;5123596;27;20896;-74
2022/12/31 00:27:51;;;;;;;4.82;2.97;;;;;;;;;;5107565;27;20052;-73
2022/12/31 00:30:17;;;;;;;4.28;1.70;;;;;;;;;;5106727;27;20060;-73
2022/12/31 00:32:43;;;;;;;3.72;1.95;;;;;;;;;;5104976;27;20048;-73
2022/12/31 00:35:10;;;;;;;3.55;2.03;;;;;;;;;;5108975;27;20079;-73
2022/12/31 00:37:36;;;;;;;3.63;2.13;;;;;;;;;;5110217;27;20135;-73
2022/12/31 00:40:03;;;;;;;3.17;2.40;;;;;;;;;;5111175;27;20047;-73
2022/12/31 00:42:29;;;;;;;3.33;2.25;;;;;;;;;;5104468;27;20585;-73
2022/12/31 00:44:56;;;;;;;3.60;2.72;;;;;;;;;;5113383;27;20044;-74
2022/12/31 00:47:23;;;;;;;3.90;2.45;;;;;;;;;;5109512;27;20067;-71
2022/12/31 00:49:49;;;;;;;4.53;3.15;;;;;;;;;;5113657;27;20058;-72
2022/12/31 00:52:17;;;;;;;3.35;2.35;;;;;;;;;;5111229;27;20052;-72
2022/12/31 00:54:43;;;;;;;4.55;2.90;;;;;;;;;;5118844;27;20043;-72
2022/12/31 00:57:09;;;;;;;4.03;3.15;;;;;;;;;;5123711;27;20051;-72
2022/12/31 00:59:36;;;;;;;3.47;2.25;;;;;;;;;;5127030;27;20055;-71
2022/12/31 01:02:02;;;;;;;3.50;2.63;;;;;;;;;;5104159;27;20651;-72
2022/12/31 01:04:29;;;;;;;4.22;2.60;;;;;;;;;;5109919;27;20063;-72
2022/12/31 01:06:55;;;;;;;4.97;3.00;;;;;;;;;;5112690;27;20044;-71
2022/12/31 01:09:21;;;;;;;4.63;3.40;;;;;;;;;;5123617;27;20036;-70
2022/12/31 01:11:48;;;;;;;6.20;3.38;;;;;;;;;;5106916;27;20721;-72
2022/12/31 01:14:16;;;;;;;7.75;5.07;;;;;;;;;;5110840;27;20228;-70
2022/12/31 01:16:44;;;;;;;7.00;4.25;;;;;;;;;;5109506;27;20158;-72
2022/12/31 01:19:12;;;;;;;4.25;2.72;;;;;;;;;;5121211;27;20051;-71
2022/12/31 01:21:39;;;;;;;5.47;2.08;;;;;;;;;;5108180;27;20048;-70
2022/12/31 01:24:06;;;;;;;4.78;1.92;;;;;;;;;;5102699;27;20056;-71
2022/12/31 01:26:33;;;;;;;3.13;1.75;;;;;;;;;;5118684;27;20173;-71
2022/12/31 01:28:59;;;;;;;2.72;1.70;;;;;;;;;;5127487;27;20090;-71
2022/12/31 01:31:26;;;;;;;4.03;1.52;;;;;;;;;;5102827;27;20062;-71
2022/12/31 01:33:53;;;;;;;4.63;1.83;;;;;;;;;;5112001;27;20505;-71
2022/12/31 01:36:21;;;;;;;4.13;1.33;;;;;;;;;;5122835;27;20048;-71
2022/12/31 01:38:52;;;;;;;4.57;1.45;;;;;;;;;;5117800;27;20467;-71
2022/12/31 01:41:19;;;;;;;4.15;1.83;;;;;;;;;;5106947;27;20041;-70
2022/12/31 01:43:53;;;;;;;10.48;1.80;;;;;;;;;;5106540;27;20834;-69
2022/12/31 01:46:20;;;;;;;5.43;1.50;;;;;;;;;;5102967;27;20059;-71
2022/12/31 01:48:49;;;;;;;4.38;1.50;;;;;;;;;;5116175;27;20052;-70
2022/12/31 01:51:15;;;;;;;4.30;1.25;;;;;;;;;;5110117;27;20199;-73
2022/12/31 01:53:42;;;;;;;1.45;1.05;;;;;;;;;;5121167;27;20493;-71
2022/12/31 01:56:09;;;;;;;4.15;1.30;;;;;;;;;;5115254;27;20056;-73
2022/12/31 01:58:38;;;;;;;7.38;1.35;;;;;;;;;;5114167;27;20046;-71
2022/12/31 02:01:06;;;;;;;3.78;1.17;;;;;;;;;;5117858;27;20135;-71
2022/12/31 02:03:32;;;;;;;5.43;1.42;;;;;;;;;;5118062;27;20055;-72
2022/12/31 02:05:59;;;;;;;6.78;1.55;;;;;;;;;;5110262;27;20055;-70
2022/12/31 02:08:25;;;;;;;2.65;1.50;;;;;;;;;;5108931;27;20078;-70
2022/12/31 02:10:51;;;;;;;5.22;1.45;;;;;;;;;;5117445;27;20109;-71
2022/12/31 02:13:18;;;;;;;8.20;1.58;;;;;;;;;;5117099;27;20058;-70
2022/12/31 02:15:52;;;;;;;4.32;1.58;;;;;;;;;;5112525;27;20454;-70
2022/12/31 02:18:28;;;;;;;6.90;1.70;;;;;;;;;;5109794;27;20258;-71
2022/12/31 02:21:12;;;;;;;3.35;1.95;;;;;;;;;;5114756;27;20571;-70
2022/12/31 02:23:59;;;;;;;4.78;1.60;;;;;;;;;;5122299;27;20060;-71
2022/12/31 02:26:44;;;;;;;2.55;1.65;;;;;;;;;;5087806;27;20051;-71
2022/12/31 02:29:10;;;;;;;7.63;2.10;;;;;;;;;;5115937;27;20083;-70
2022/12/31 02:31:42;;;;;;;5.00;2.25;;;;;;;;;;5105850;28;20102;-71
2022/12/31 02:34:16;;;;;;;4.28;1.88;;;;;;;;;;5115785;27;20083;-70
2022/12/31 02:36:44;;;;;;;5.22;2.15;;;;;;;;;;5105511;27;20051;-70
2022/12/31 02:39:11;;;;;;;8.48;2.70;;;;;;;;;;5114469;27;20538;-71
2022/12/31 02:41:49;;;;;;;3.55;2.25;;;;;;;;;;5119237;27;20597;-71
2022/12/31 02:44:33;;;;;;;5.68;2.45;;;;;;;;;;5107411;27;20842;-70
2022/12/31 02:46:59;;;;;;;5.85;2.70;;;;;;;;;;5111631;27;20047;-72
2022/12/31 02:49:38;;;;;;;5.68;2.33;;;;;;;;;;5123223;27;20591;-72
2022/12/31 02:52:04;;;;;;;6.40;2.30;;;;;;;;;;5109361;27;20496;-72
2022/12/31 02:54:35;;;;;;;4.47;2.47;;;;;;;;;;5122259;27;20490;-72
2022/12/31 02:57:20;;;;;;;5.57;1.90;;;;;;;;;;5131777;27;20048;-73
2022/12/31 03:02:59;;;;;;;4.03;2.22;;;;;;;;;;5108958;27;20758;-72
2022/12/31 03:05:28;;;;;;;6.40;1.92;;;;;;;;;;5116621;27;20052;-72
2022/12/31 03:07:54;;;;;;;3.75;1.40;;;;;;;;;;5114244;27;20051;-72
2022/12/31 03:10:20;;;;;;;2.47;1.63;;;;;;;;;;5111328;27;20048;-71
2022/12/31 03:12:47;;;;;;;2.00;1.15;;;;;;;;;;5104089;27;20537;-70
2022/12/31 03:15:20;;;;;;;3.20;1.50;;;;;;;;;;5111648;27;20052;-72
2022/12/31 03:17:51;;;;;;;4.65;1.30;;;;;;;;;;5104945;27;20059;-71
2022/12/31 03:23:06;;;;;;;5.93;1.15;;;;;;;;;;5120246;27;20125;-71
2022/12/31 03:25:39;;;;;;;6.03;1.30;;;;;;;;;;5124985;27;20050;-70
2022/12/31 03:28:07;;;;;;;2.55;1.38;;;;;;;;;;5116765;27;20160;-71
2022/12/31 03:30:34;;;;;;;2.40;1.15;;;;;;;;;;5110386;27;20513;-71
2022/12/31 03:33:01;;;;;;;2.20;1.08;;;;;;;;;;5104801;27;20048;-70
2022/12/31 03:35:28;;;;;;;4.82;1.17;;;;;;;;;;5116098;27;20502;-72
2022/12/31 03:37:55;;;;;;;1.23;1.08;;;;;;;;;;5096280;27;20044;-70
2022/12/31 03:40:22;;;;;;;5.70;1.50;;;;;;;;;;5114529;27;20543;-71
2022/12/31 03:42:48;;;;;;;3.63;1.38;;;;;;;;;;5110915;27;20052;-71
2022/12/31 03:45:15;;;;;;;1.67;1.05;;;;;;;;;;5121461;27;20602;-70
2022/12/31 03:47:41;;;;;;;1.58;1.20;;;;;;;;;;5112250;27;20056;-70
2022/12/31 03:50:08;;;;;;;4.40;1.67;;;;;;;;;;5120268;27;20055;-70
2022/12/31 03:52:35;;;;;;;1.83;1.20;;;;;;;;;;5104451;27;20056;-70
2022/12/31 03:55:01;;;;;;;5.57;1.20;;;;;;;;;;5112903;27;20052;-70
2022/12/31 03:57:28;;;;;;;4.63;1.10;;;;;;;;;;5104612;27;20651;-70
2022/12/31 03:59:54;;;;;;;4.25;1.60;;;;;;;;;;5114219;27;20089;-70
2022/12/31 04:02:21;;;;;;;6.28;1.45;;;;;;;;;;5114391;27;20044;-70
2022/12/31 04:04:54;;;;;;;5.10;1.20;;;;;;;;;;5099968;27;20051;-70
2022/12/31 04:07:20;;;;;;;2.83;1.00;;;;;;;;;;5118178;27;20105;-70
2022/12/31 04:09:47;;;;;;;2.38;1.10;;;;;;;;;;5123109;27;20044;-72
2022/12/31 04:12:13;;;;;;;5.65;1.90;;;;;;;;;;5123539;27;20109;-72
2022/12/31 04:14:39;;;;;;;3.17;1.25;;;;;;;;;;5119677;27;20060;-71
2022/12/31 04:17:06;;;;;;;3.00;1.10;;;;;;;;;;5104660;27;20044;-72
2022/12/31 04:19:32;;;;;;;5.20;1.00;;;;;;;;;;5118121;27;20052;-72
2022/12/31 04:21:59;;;;;;;2.35;1.17;;;;;;;;;;5105071;27;20143;-71
2022/12/31 04:24:25;;;;;;;2.67;1.00;;;;;;;;;;5119696;27;20058;-69
2022/12/31 04:26:52;;;;;;;4.07;1.20;;;;;;;;;;5122648;27;20048;-71
2022/12/31 04:29:18;;;;;;;4.35;0.90;;;;;;;;;;5108617;27;20052;-70
2022/12/31 04:31:45;;;;;;;1.80;1.00;;;;;;;;;;5116151;27;20048;-70
2022/12/31 04:34:11;;;;;;;0.90;0.80;;;;;;;;;;5118221;27;20054;-71
2022/12/31 04:36:37;;;;;;;1.63;1.08;;;;;;;;;;5123245;27;20051;-70
2022/12/31 04:39:04;;;;;;;1.05;0.98;;;;;;;;;;5124137;27;20055;-70
2022/12/31 04:41:30;;;;;;;1.48;0.93;;;;;;;;;;5123939;27;20460;-72
2022/12/31 04:43:57;;;;;;;2.42;0.93;;;;;;;;;;5119021;27;20056;-72
2022/12/31 04:46:27;;;;;;;3.60;1.20;;;;;;;;;;5124132;27;20126;-73
2022/12/31 04:48:53;;;;;;;2.90;1.13;;;;;;;;;;5118226;27;20529;-73
2022/12/31 04:51:20;;;;;;;2.17;1.30;;;;;;;;;;5107696;27;20526;-74
2022/12/31 04:53:47;;;;;;;2.40;1.70;;;;;;;;;;5104011;27;20087;-73
2022/12/31 04:56:13;;;;;;;2.97;1.52;;;;;;;;;;5115074;27;20142;-70
2022/12/31 04:58:40;;;;;;;1.30;1.10;;;;;;;;;;5103954;27;20372;-70
2022/12/31 05:01:06;;;;;;;2.13;1.05;;;;;;;;;;5115174;27;20048;-72
2022/12/31 05:03:34;;;;;;;2.20;1.30;;;;;;;;;;5085668;28;20052;-72
2022/12/31 05:06:01;;;;;;;1.40;1.30;;;;;;;;;;5106358;27;20056;-70
2022/12/31 05:08:28;;;;;;;2.25;1.50;;;;;;;;;;5120561;27;20059;-70
2022/12/31 05:10:54;;;;;;;2.30;1.92;;;;;;;;;;5112299;27;20040;-71
2022/12/31 05:13:20;;;;;;;2.83;1.92;;;;;;;;;;5103080;27;20056;-72
2022/12/31 05:15:47;;;;;;;2.15;1.75;;;;;;;;;;5102477;27;20051;-72
2022/12/31 05:18:15;;;;;;;2.15;1.85;;;;;;;;;;5122934;27;20512;-70
2022/12/31 05:20:41;;;;;;;2.50;1.85;;;;;;;;;;5118521;27;20094;-72
2022/12/31 05:23:07;;;;;;;9.43;2.30;;;;;;;;;;5105812;27;20050;-72
2022/12/31 05:25:34;;;;;;;3.90;2.25;;;;;;;;;;5110293;27;20060;-74
2022/12/31 05:28:00;;;;;;;4.22;2.67;;;;;;;;;;5109784;27;20167;-73
2022/12/31 05:30:26;;;;;;;2.97;1.92;;;;;;;;;;5121472;27;20047;-72
2022/12/31 05:32:53;;;;;;;2.40;2.00;;;;;;;;;;5122723;27;20055;-72
2022/12/31 05:35:19;;;;;;;2.00;1.73;;;;;;;;;;5115777;27;20109;-72
2022/12/31 05:37:45;;;;;;;1.98;1.77;;;;;;;;;;5109026;27;20052;-73
2022/12/31 05:40:12;;;;;;;3.22;1.70;;;;;;;;;;5113539;27;20787;-71
2022/12/31 05:42:39;;;;;;;2.65;1.70;;;;;;;;;;5120715;27;20086;-72
2022/12/31 05:45:05;;;;;;;2.30;1.50;;;;;;;;;;5116436;27;20150;-72
2022/12/31 05:47:31;;;;;;;1.65;1.55;;;;;;;;;;5106905;27;20528;-72
2022/12/31 05:49:58;;;;;;;2.13;1.80;;;;;;;;;;5094675;27;20080;-73
2022/12/31 05:52:25;;;;;;;1.95;1.70;;;;;;;;;;5108586;27;20509;-72
2022/12/31 05:54:51;;;;;;;3.30;2.20;;;;;;;;;;5116616;27;20566;-73
2022/12/31 05:57:17;;;;;;;2.30;1.73;;;;;;;;;;5108296;27;20071;-71
2022/12/31 05:59:44;;;;;;;2.00;1.77;;;;;;;;;;5119761;27;20043;-70
2022/12/31 06:02:10;;;;;;;2.65;1.80;;;;;;;;;;5106478;27;20135;-72
2022/12/31 06:04:37;;;;;;;1.73;1.60;;;;;;;;;;5105205;27;20045;-73
2022/12/31 06:07:03;;;;;;;2.67;2.10;;;;;;;;;;5106697;27;20677;-72
2022/12/31 06:09:29;;;;;;;2.17;1.90;;;;;;;;;;5102371;27;20621;-72
2022/12/31 06:11:56;;;;;;;2.35;1.60;;;;;;;;;;5104998;27;20052;-72
2022/12/31 06:14:22;;;;;;;1.80;1.60;;;;;;;;;;5107305;27;20059;-70
2022/12/31 06:16:48;;;;;;;2.28;1.45;;;;;;;;;;5113331;27;20094;-75
2022/12/31 06:19:15;;;;;;;1.90;1.65;;;;;;;;;;5112733;27;20056;-76
2022/12/31 06:21:41;;;;;;;1.58;1.38;;;;;;;;;;5119561;27;20597;-73
2022/12/31 06:24:07;;;;;;;2.30;1.50;;;;;;;;;;5122042;27;20509;-72
2022/12/31 06:26:33;;;;;;;2.05;1.60;;;;;;;;;;5111664;27;20094;-74
2022/12/31 06:29:00;;;;;;;2.53;1.88;;;;;;;;;;5109075;27;20598;-74
2022/12/31 06:31:26;;;;;;;2.45;1.35;;;;;;;;;;5117344;27;20066;-73
2022/12/31 06:33:53;;;;;;;1.67;1.58;;;;;;;;;;5107306;27;20557;-77
2022/12/31 06:36:20;;;;;;;2.45;1.70;;;;;;;;;;5119322;27;20044;-75
2022/12/31 06:38:47;;;;;;;2.45;1.90;;;;;;;;;;5120977;27;20132;-77
2022/12/31 06:41:14;;;;;;;3.15;2.55;;;;;;;;;;5107457;27;20044;-77
2022/12/31 06:43:41;;;;;;;4.45;3.15;;;;;;;;;;5110372;27;20087;-69
2022/12/31 06:46:09;;;;;;;6.25;4.10;;;;;;;;;;5126926;27;20051;-74
2022/12/31 06:48:36;;;;;;;4.53;3.72;;;;;;;;;;5097796;27;20132;-72
2022/12/31 06:51:04;;;;;;;5.30;4.20;;;;;;;;;;5098153;27;20139;-76
2022/12/31 06:53:30;;;;;;;6.28;4.30;;;;;;;;;;5118731;27;20052;-73
2022/12/31 06:55:57;;;;;;;3.90;3.30;;;;;;;;;;5122410;27;20597;-72
2022/12/31 06:58:23;;;;;;;5.00;3.35;;;;;;;;;;5121257;27;20046;-71
2022/12/31 07:00:54;;;;;;;4.03;3.25;;;;;;;;;;5122696;27;20651;-74
2022/12/31 07:03:26;;;;;;;5.07;3.95;;;;;;;;;;5113490;27;20502;-71
2022/12/31 07:06:00;;;;;;;4.93;3.78;;;;;;;;;;5118224;27;20051;-73
2022/12/31 07:08:36;;;;;;;3.55;2.92;;;;;;;;;;5112946;27;20048;-74
2022/12/31 07:11:03;;;;;;;;;;;;;;;;;;5128283;27;20044;-71
2022/12/31 07:13:43;;;;;;;4.78;2.55;;;;;;;;;;5124985;27;44951;-74
2022/12/31 07:16:22;;;;;;;3.67;2.83;;;;;;;;;;5121407;27;20113;-72
2022/12/31 07:18:49;;;;;;;3.72;2.65;;;;;;;;;;5107427;27;20077;-75
2022/12/31 07:21:17;;;;;;;3.17;2.38;;;;;;;;;;5114460;27;20048;-73
2022/12/31 07:23:43;;;;;;;3.65;2.00;;;;;;;;;;5122559;27;20523;-76
2022/12/31 07:26:17;;;;;;;2.08;1.40;;;;;;;;;;5121328;27;20166;-72
2022/12/31 07:28:49;;;;;;;2.28;1.85;;;;;;;;;;5119348;27;20032;-74
2022/12/31 07:31:21;;;;;;;1.88;1.45;;;;;;;;;;5117799;27;20143;-77
2022/12/31 07:33:57;;;;;;;3.15;1.90;;;;;;;;;;5107855;27;20059;-74
2022/12/31 07:36:43;;;;;;;2.75;1.20;;;;;;;;;;5118805;27;20055;-78
2022/12/31 07:39:12;;;;;;;0.77;0.75;;;;;;;;;;5119019;27;20140;-72
2022/12/31 07:41:44;;;;;;;2.95;0.68;;;;;;;;;;5113670;27;20106;-76
2022/12/31 07:44:29;;;;;;;1.05;0.63;;;;;;;;;;5105304;27;20488;-74
2022/12/31 07:46:57;;;;;;;0.85;0.52;;;;;;;;;;5125523;27;20048;-74
2022/12/31 07:49:25;;;;;;;0.40;0.40;;;;;;;;;;5104307;27;20674;-77
2022/12/31 07:51:51;;;;;;;0.50;0.50;;;;;;;;;;5106217;27;21010;-75
2022/12/31 07:54:18;;;;;;;0.50;0.45;;;;;;;;;;5124491;27;20933;-76
2022/12/31 07:56:45;;;;;;;1.17;0.70;;;;;;;;;;5123111;27;20052;-71
2022/12/31 07:59:30;;;;;;;0.50;0.50;;;;;;;;;;5102228;27;20127;-73
2022/12/31 08:02:14;;;;;;;0.52;0.47;;;;;;;;;;5128195;27;20107;-77
2022/12/31 08:04:59;;;;;;;0.50;0.50;;;;;;;;;;5112822;27;20037;-70
2022/12/31 08:07:25;;;;;;;0.85;0.73;;;;;;;;;;5118325;27;20064;-76
2022/12/31 08:09:57;;;;;;;0.75;0.60;;;;;;;;;;5114252;27;20048;-77
2022/12/31 08:12:24;;;;;;;0.77;0.60;;;;;;;;;;5116675;27;20063;-71
2022/12/31 08:14:51;;;;;;;1.17;0.80;;;;;;;;;;5105981;27;20063;-73
2022/12/31 08:17:17;;;;;;;2.78;0.80;;;;;;;;;;5122693;27;20051;-77
2022/12/31 08:19:44;;;;;;;1.17;0.70;;;;;;;;;;5123826;27;20057;-70
2022/12/31 08:22:14;;;;;;;3.85;0.70;;;;;;;;;;5126029;27;20044;-70
2022/12/31 08:24:51;;;;;;;2.05;0.80;;;;;;;;;;5115061;27;20059;-74
2022/12/31 08:27:29;;;;;;;2.05;1.13;;;;;;;;;;5104832;27;20048;-73
2022/12/31 08:30:02;;;;;;;2.47;0.90;;;;;;;;;;5124966;27;20087;-72
2022/12/31 08:32:39;;;;;;;2.25;0.82;;;;;;;;;;5112258;27;20048;-74
2022/12/31 08:35:40;;;;;;;1.00;0.70;;;;;;;;;;5107934;27;20105;-73
2022/12/31 08:38:26;;;;;;;2.42;0.70;;;;;;;;;;5121535;27;20062;-70
2022/12/31 08:40:57;;;;;;;1.80;1.00;;;;;;;;;;5121634;27;20063;-74
2022/12/31 08:43:40;;;;;;;1.88;0.95;;;;;;;;;;5111675;27;20293;-74
2022/12/31 08:46:14;;;;;;;1.60;0.80;;;;;;;;;;5109011;27;20518;-72
2022/12/31 08:48:41;;;;;;;1.85;0.60;;;;;;;;;;5111471;27;20052;-70
2022/12/31 08:51:13;;;;;;;0.82;0.75;;;;;;;;;;5123486;27;20051;-72
2022/12/31 08:53:40;;;;;;;3.17;0.93;;;;;;;;;;5120949;27;20066;-72
2022/12/31 08:56:11;;;;;;;1.63;1.20;;;;;;;;;;5107743;27;20112;-73
2022/12/31 08:58:37;;;;;;;5.30;0.88;;;;;;;;;;5124150;27;20403;-73
2022/12/31 09:01:05;;;;;;;3.78;0.88;;;;;;;;;;5123062;27;20048;-72
2022/12/31 09:03:38;;;;;;;2.78;0.95;;;;;;;;;;5115230;27;20158;-73
2022/12/31 09:06:13;;;;;;;0.75;0.75;;;;;;;;;;5109080;27;20569;-73
2022/12/31 09:08:49;;;;;;;1.90;1.23;;;;;;;;;;5118898;27;20175;-74
2022/12/31 09:11:18;;;;;;;1.48;0.95;;;;;;;;;;5119193;27;20083;-74
2022/12/31 09:13:51;;;;;;;2.33;1.20;;;;;;;;;;5118167;27;20079;-73
2022/12/31 09:16:24;;;;;;;3.90;1.50;;;;;;;;;;5118084;27;20078;-73
2022/12/31 09:18:50;;;;;;;3.33;1.00;;;;;;;;;;5091365;28;20661;-75
2022/12/31 09:21:16;;;;;;;5.22;1.40;;;;;;;;;;5094916;27;20078;-75
2022/12/31 09:23:43;;;;;;;3.55;1.05;;;;;;;;;;5113914;27;20052;-77
2022/12/31 09:26:10;;;;;;;2.47;1.95;;;;;;;;;;5099488;27;20054;-78
2022/12/31 09:28:46;;;;;;;6.30;2.22;;;;;;;;;;5109052;27;20052;-76
2022/12/31 09:31:18;;;;;;;2.20;1.60;;;;;;;;;;5105843;27;20077;-72
2022/12/31 09:33:48;;;;;;;2.90;1.50;;;;;;;;;;5105311;27;20540;-73
2022/12/31 09:36:18;;;;;;;2.35;1.40;;;;;;;;;;5111147;27;20054;-76
2022/12/31 09:38:47;;;;;;;3.50;1.60;;;;;;;;;;5102260;27;20056;-73
2022/12/31 09:41:15;;;;;;;4.78;1.40;;;;;;;;;;5108985;27;20106;-72
2022/12/31 09:44:03;;;;;;;4.63;1.10;;;;;;;;;;5107565;27;20135;-73
2022/12/31 09:46:35;;;;;;;2.28;1.13;;;;;;;;;;5110373;27;20052;-73
2022/12/31 09:49:28;;;;;;;4.15;1.10;;;;;;;;;;5112267;27;20058;-74
2022/12/31 09:52:09;;;;;;;3.47;1.33;;;;;;;;;;5109290;27;20510;-74
2022/12/31 09:54:51;;;;;;;4.32;1.40;;;;;;;;;;5114243;27;20583;-75
2022/12/31 09:57:20;;;;;;;1.77;1.38;;;;;;;;;;5111213;27;20556;-73
2022/12/31 09:59:52;;;;;;;4.57;1.58;;;;;;;;;;5106400;27;20052;-74
2022/12/31 10:02:30;;;;;;;2.92;1.40;;;;;;;;;;5105708;27;20063;-75
2022/12/31 10:05:16;;;;;;;6.82;2.58;;;;;;;;;;5108905;27;20044;-73
2022/12/31 10:07:42;;;;;;;6.47;1.58;;;;;;;;;;5113182;27;20048;-73
2022/12/31 10:10:21;;;;;;;5.32;1.42;;;;;;;;;;5111944;27;20048;-75
2022/12/31 10:12:50;;;;;;;3.60;1.45;;;;;;;;;;5120649;27;20086;-74
2022/12/31 10:15:35;;;;;;;3.25;1.45;;;;;;;;;;5105932;27;20560;-73
2022/12/31 10:18:17;;;;;;;6.00;1.60;;;;;;;;;;5123003;27;20059;-74
2022/12/31 10:20:50;;;;;;;3.55;1.45;;;;;;;;;;5106820;27;20060;-72
2022/12/31 10:23:19;;;;;;;3.22;1.60;;;;;;;;;;5119072;27;20166;-73
2022/12/31 10:25:58;;;;;;;2.50;1.17;;;;;;;;;;5109138;27;20127;-72
2022/12/31 10:28:39;;;;;;;5.28;1.42;;;;;;;;;;5119494;27;20044;-72
2022/12/31 10:31:14;;;;;;;3.13;1.27;;;;;;;;;;5106926;27;20121;-71
2022/12/31 10:33:43;;;;;;;3.87;1.60;;;;;;;;;;5110663;27;20051;-71
2022/12/31 10:36:18;;;;;;;4.25;1.45;;;;;;;;;;5096194;27;20070;-72
2022/12/31 10:38:45;;;;;;;2.40;1.85;;;;;;;;;;5109870;27;20079;-72
2022/12/31 10:41:30;;;;;;;3.50;1.67;;;;;;;;;;5107171;27;20090;-72
2022/12/31 10:44:16;;;;;;;4.38;2.25;;;;;;;;;;5106684;27;20048;-71
2022/12/31 10:46:57;;;;;;;5.75;1.73;;;;;;;;;;5120234;27;20055;-71
2022/12/31 10:49:50;;;;;;;4.10;1.70;;;;;;;;;;5115604;27;20047;-72
2022/12/31 10:52:35;;;;;;;4.75;1.77;;;;;;;;;;5109651;27;20530;-70
2022/12/31 10:55:25;;;;;;;2.15;1.52;;;;;;;;;;5105612;27;20400;-70
2022/12/31 10:58:11;;;;;;;4.13;1.90;;;;;;;;;;5116921;27;20050;-70
2022/12/31 11:01:00;;;;;;;4.00;2.20;;;;;;;;;;5108271;27;20109;-71
2022/12/31 11:03:41;;;;;;;6.18;3.10;;;;;;;;;;5084181;28;20064;-70
2022/12/31 11:06:16;;;;;;;6.25;1.95;;;;;;;;;;5078892;28;20603;-70
2022/12/31 11:08:49;;;;;;;1.50;1.40;;;;;;;;;;5078886;28;20052;-71
2022/12/31 11:11:33;;;;;;;1.50;1.40;;;;;;;;;;5072135;28;20632;-71
2022/12/31 11:14:17;;;;;;;5.68;1.75;;;;;;;;;;5077934;28;20049;-72
2022/12/31 11:17:02;;;;;;;5.13;1.73;;;;;;;;;;5081280;28;20100;-69
2022/12/31 11:19:54;;;;;;;2.95;1.83;;;;;;;;;;5074571;28;20059;-76
2022/12/31 11:22:28;;;;;;;5.22;2.10;;;;;;;;;;5055110;28;20970;-77
2022/12/31 11:24:54;;;;;;;4.45;1.95;;;;;;;;;;5062962;28;20490;-73
2022/12/31 11:27:42;;;;;;;7.53;3.13;;;;;;;;;;5079164;28;20139;-71
2022/12/31 11:30:34;;;;;;;7.32;2.92;;;;;;;;;;5081799;28;20717;-73
2022/12/31 11:33:18;;;;;;;6.90;2.08;;;;;;;;;;5081658;28;20036;-69
2022/12/31 11:36:07;;;;;;;4.75;3.00;;;;;;;;;;5072012;28;20051;-72
2022/12/31 11:38:42;;;;;;;6.57;2.20;;;;;;;;;;5079837;28;20052;-72
2022/12/31 11:41:21;;;;;;;3.15;2.55;;;;;;;;;;5105784;27;20048;-70
2022/12/31 11:44:06;;;;;;;10.52;4.35;;;;;;;;;;5110845;27;20505;-71
2022/12/31 11:46:42;;;;;;;6.47;2.53;;;;;;;;;;5104688;27;20055;-71
2022/12/31 11:49:20;;;;;;;3.97;1.98;;;;;;;;;;5105767;27;20728;-72
2022/12/31 11:51:55;;;;;;;4.03;2.90;;;;;;;;;;5109792;27;20126;-69
2022/12/31 11:54:34;;;;;;;4.78;2.40;;;;;;;;;;5122316;27;20506;-70
2022/12/31 11:57:19;;;;;;;4.85;2.15;;;;;;;;;;5108454;27;20878;-72
2022/12/31 11:59:45;;;;;;;5.05;3.03;;;;;;;;;;5115191;27;20508;-72
2022/12/31 12:02:11;;;;;;;10.25;5.90;;;;;;;;;;5108942;27;20055;-71
2022/12/31 12:04:38;;;;;;;7.60;3.03;;;;;;;;;;5114661;27;20400;-73
2022/12/31 12:07:11;;;;;;;8.73;2.83;;;;;;;;;;5107362;27;20482;-72
2022/12/31 12:09:38;;;;;;;6.20;2.17;;;;;;;;;;5115461;27;20518;-69
2022/12/31 12:12:04;;;;;;;4.57;2.08;;;;;;;;;;5106652;27;20533;-70
2022/12/31 12:14:41;;;;;;;5.97;2.10;;;;;;;;;;5109453;27;20058;-73
2022/12/31 12:17:09;;;;;;;7.88;2.60;;;;;;;;;;5125246;27;20059;-70
2022/12/31 12:19:41;;;;;;;4.70;2.05;;;;;;;;;;5118355;27;20770;-72
2022/12/31 12:22:08;;;;;;;11.27;1.85;;;;;;;;;;5122096;27;20047;-70
2022/12/31 12:24:34;;;;;;;5.55;1.65;;;;;;;;;;5124899;27;20211;-72
2022/12/31 12:27:01;;;;;;;5.43;1.73;;;;;;;;;;5125196;27;20072;-71
2022/12/31 12:29:30;;;;;;;5.45;1.83;;;;;;;;;;5117326;27;20052;-75
2022/12/31 12:32:01;;;;;;;6.18;2.38;;;;;;;;;;5107076;27;20538;-76
2022/12/31 12:34:27;;;;;;;9.02;1.90;;;;;;;;;;5103152;27;20056;-73
2022/12/31 12:36:54;;;;;;;8.63;2.13;;;;;;;;;;5111884;27;20799;-75
2022/12/31 12:39:22;;;;;;;4.80;1.92;;;;;;;;;;5122597;27;20826;-73
2022/12/31 12:42:06;;;;;;;3.17;1.80;;;;;;;;;;5109651;27;20052;-73
2022/12/31 12:44:34;;;;;;;5.18;1.77;;;;;;;;;;5123011;27;20105;-73
2022/12/31 12:47:01;;;;;;;4.72;1.33;;;;;;;;;;5104363;27;20537;-74
2022/12/31 12:49:36;;;;;;;5.85;1.40;;;;;;;;;;5113078;27;20059;-73
2022/12/31 12:52:09;;;;;;;3.60;1.40;;;;;;;;;;5113037;27;20143;-73
2022/12/31 12:54:51;;;;;;;3.88;1.48;;;;;;;;;;5110234;27;20404;-72
2022/12/31 12:57:18;;;;;;;7.05;2.15;;;;;;;;;;5117846;27;20050;-73
2022/12/31 12:59:53;;;;;;;9.60;5.20;;;;;;;;;;5112296;27;20494;-71
2022/12/31 13:02:20;;;;;;;;;;;;;;;;;;5106528;27;20052;-71
2022/12/31 13:04:58;;;;;;;6.70;1.63;;;;;;;;;;5117042;27;44841;-72
2022/12/31 13:07:41;;;;;;;6.57;1.33;;;;;;;;;;5112185;27;20048;-71
2022/12/31 13:10:20;;;;;;;3.45;1.40;;;;;;;;;;5111639;27;20506;-72
2022/12/31 13:12:49;;;;;;;3.35;1.10;;;;;;;;;;5113792;27;20047;-72
2022/12/31 13:15:44;;;;;;;6.72;1.85;;;;;;;;;;5116533;27;20541;-70
2022/12/31 13:18:29;;;;;;;7.88;1.45;;;;;;;;;;5114566;27;20066;-71
2022/12/31 13:20:55;;;;;;;3.20;1.43;;;;;;;;;;5104309;27;20522;-71
2022/12/31 13:23:33;;;;;;;7.70;1.80;;;;;;;;;;5119470;27;20054;-71
2022/12/31 13:26:19;;;;;;;8.68;2.05;;;;;;;;;;5107510;27;20052;-73
2022/12/31 13:28:47;;;;;;;6.43;2.00;;;;;;;;;;5113241;27;20583;-72
2022/12/31 13:31:16;;;;;;;4.45;2.35;;;;;;;;;;5103207;27;20055;-73
2022/12/31 13:33:46;;;;;;;3.33;1.52;;;;;;;;;;5117265;27;20051;-73
2022/12/31 13:36:15;;;;;;;4.80;1.75;;;;;;;;;;5113113;27;20052;-74
2022/12/31 13:38:44;;;;;;;5.20;2.10;;;;;;;;;;5109191;27;20407;-75
2022/12/31 13:41:14;;;;;;;3.15;1.73;;;;;;;;;;5103485;27;20076;-72
2022/12/31 13:43:57;;;;;;;6.35;1.85;;;;;;;;;;5114891;27;20051;-73
2022/12/31 13:46:42;;;;;;;7.45;2.53;;;;;;;;;;5124511;27;20135;-71
2022/12/31 13:49:09;;;;;;;;;;;;;;;;;;5116706;27;20520;-73
2022/12/31 13:51:40;;;;;;;6.13;2.95;;;;;;;;;;5106870;27;47022;-73
2022/12/31 13:54:29;;;;;;;3.42;1.70;;;;;;;;;;5119936;27;20055;-71
2022/12/31 13:56:59;;;;;;;5.20;2.25;;;;;;;;;;5117295;27;20425;-73
2022/12/31 13:59:28;;;;;;;3.47;2.38;;;;;;;;;;5110586;27;20926;-73
2022/12/31 14:01:58;;;;;;;2.85;1.83;;;;;;;;;;5106201;27;20575;-72
2022/12/31 14:04:57;;;;;;;5.30;2.28;;;;;;;;;;5120887;27;20056;-74
2022/12/31 14:07:35;;;;;;;3.88;1.83;;;;;;;;;;5079229;27;20055;-74
2022/12/31 14:10:12;;;;;;;5.82;2.40;;;;;;;;;;5118822;27;20493;-73
2022/12/31 14:12:52;;;;;;;4.10;1.83;;;;;;;;;;5120521;27;20143;-72
2022/12/31 14:15:24;;;;;;;5.75;3.05;;;;;;;;;;5120183;27;20489;-73
2022/12/31 14:17:57;;;;;;;5.57;1.77;;;;;;;;;;5123189;27;20044;-73
2022/12/31 14:20:32;;;;;;;3.25;1.63;;;;;;;;;;5116874;27;20072;-71
2022/12/31 14:23:02;;;;;;;6.68;1.92;;;;;;;;;;5112760;27;20138;-72
2022/12/31 14:25:40;;;;;;;8.98;2.53;;;;;;;;;;5125108;27;20054;-72
2022/12/31 14:28:14;;;;;;;4.88;1.90;;;;;;;;;;5111395;27;20070;-71
2022/12/31 14:30:42;;;;;;;8.43;2.00;;;;;;;;;;5102720;27;20547;-72
2022/12/31 14:33:16;;;;;;;4.65;2.10;;;;;;;;;;5123669;27;20426;-71
2022/12/31 14:35:51;;;;;;;4.60;2.13;;;;;;;;;;5118208;27;20053;-72
2022/12/31 14:38:31;;;;;;;6.47;2.17;;;;;;;;;;5114081;27;20058;-72
2022/12/31 14:40:57;;;;;;;5.50;2.40;;;;;;;;;;5112858;27;20055;-72
2022/12/31 14:43:36;;;;;;;4.40;1.92;;;;;;;;;;5118913;27;20043;-73
2022/12/31 14:46:11;;;;;;;4.30;2.17;;;;;;;;;;5115364;27;20108;-72
2022/12/31 14:48:38;;;;;;;7.38;3.58;;;;;;;;;;5120601;27;20048;-73
2022/12/31 14:51:04;;;;;;;9.32;2.58;;;;;;;;;;5104815;27;20063;-72
2022/12/31 14:53:31;;;;;;;4.97;2.60;;;;;;;;;;5111425;27;20059;-70
2022/12/31 14:56:02;;;;;;;6.07;2.55;;;;;;;;;;5117264;27;20145;-72
2022/12/31 14:58:38;;;;;;;4.63;2.30;;;;;;;;;;5117884;27;20048;-72
2022/12/31 15:01:07;;;;;;;6.60;2.42;;;;;;;;;;5104725;27;20044;-72
2022/12/31 15:03:38;;;;;;;4.75;2.08;;;;;;;;;;5111922;27;20051;-72
2022/12/31 15:06:11;;;;;;;7.20;2.25;;;;;;;;;;5105165;27;20068;-73
2022/12/31 15:08:56;;;;;;;4.25;2.28;;;;;;;;;;5109052;27;20072;-73
2022/12/31 15:11:33;;;;;;;10.75;5.07;;;;;;;;;;5115097;27;20653;-73
2022/12/31 15:14:03;;;;;;;7.28;3.58;;;;;;;;;;5119146;27;20079;-71